aviador You're here:

KCBE Decoded Metar

CUMBERLAND REG in MD, USA
Report Time2017-09-24 01:06:00
UTC Time2017-09-24 01:29:19
Flight Rules vfr VFR
Wind360° at 04 kt
W.Decomp.*RWY 05: 3.1 kt HW 2.6 kt LCW
RWY 29: 0.7 kt HW 3.9 kt RCW
Visibility9999 m
Phenomena:N/A
Clouds:N/A
Expected CloudBase > 4,000 ft AGL from Temp-Dew spread
CeilingNone
Temp23°C (ISA +10)
Dew Point13°C (53% RH)
AAT22.5°C
QNH1021 hPa
Density Alt1,818 ft
Elevation774 ft
Report Wrong Elevation
Raw Report
KCBE 240106Z AUTO 36004KT 10SM CLR 23/13 A3016 RMK AO1=

Extra information for KCBE:More info

Metar Taf Metar & Taf Last 4 Metars F.Rules Stats Wind Profile Meteogram Temp Stats Airport Information Weather charts Add Link Nearby VenuesMetar ALERT Operation Metar Decoded Social comments

AIRNAV info for KCBE